createdAt,value
2018-12-02T06:05:39.742Z,1.53
2018-12-02T06:10:43.840Z,1.23
2018-12-02T06:15:47.217Z,1.67
2018-12-02T06:20:51.310Z,1.33
2018-12-02T06:25:55.416Z,1.40
2018-12-02T06:30:58.761Z,2.47
2018-12-02T06:36:02.856Z,2.37
2018-12-02T06:41:06.201Z,1.37
2018-12-02T06:46:10.294Z,1.37
2018-12-02T06:51:13.639Z,1.50
2018-12-02T06:56:20.057Z,1.47
2018-12-02T07:01:24.056Z,2.13
2018-12-02T07:06:27.392Z,1.77
2018-12-02T07:11:38.624Z,1.47
2018-12-02T07:16:41.952Z,1.20
2018-12-02T07:21:46.439Z,1.93
2018-12-02T07:26:53.001Z,2.60
2018-12-02T07:31:56.347Z,1.70
2018-12-02T07:36:59.673Z,1.10
2018-12-02T07:42:03.013Z,1.33
2018-12-02T07:47:07.106Z,0.97
2018-12-02T07:52:10.445Z,0.93
2018-12-02T07:57:13.788Z,1.73
2018-12-02T08:02:18.214Z,1.20
2018-12-02T08:07:20.593Z,1.20
2018-12-02T08:12:24.692Z,2.00
2018-12-02T08:17:28.048Z,2.10
2018-12-02T08:22:35.008Z,1.10
2018-12-02T08:27:39.176Z,3.50
2018-12-02T08:32:42.514Z,2.40
2018-12-02T08:37:45.851Z,2.00
2018-12-02T08:42:49.451Z,2.20
2018-12-02T08:47:53.047Z,2.43
2018-12-02T08:52:56.642Z,2.37
2018-12-02T08:58:03.129Z,3.63
2018-12-02T09:03:07.479Z,2.07
2018-12-02T09:08:17.501Z,3.67
2018-12-02T09:13:25.768Z,2.33
2018-12-02T09:18:32.550Z,2.07
2018-12-02T09:23:38.355Z,1.93
2018-12-02T09:28:43.634Z,1.73
2018-12-02T09:33:49.457Z,2.63
2018-12-02T09:38:53.059Z,2.03
2018-12-02T09:43:56.675Z,2.57
2018-12-02T09:49:00.315Z,2.87
2018-12-02T09:54:04.063Z,2.63
2018-12-02T09:59:07.850Z,3.13
2018-12-02T10:04:11.671Z,2.23
2018-12-02T10:09:15.878Z,1.67
2018-12-02T10:14:20.113Z,3.43
2018-12-02T10:19:23.883Z,1.23
2018-12-02T10:24:27.996Z,1.90
2018-12-02T10:29:32.802Z,2.43
2018-12-02T10:34:36.688Z,2.03
2018-12-02T10:39:40.396Z,2.53
2018-12-02T10:44:44.072Z,4.60
2018-12-02T10:49:47.922Z,3.20
2018-12-02T10:54:51.638Z,3.13
2018-12-02T11:00:16.922Z,2.70
2018-12-02T11:05:21.855Z,1.07
2018-12-02T11:10:26.144Z,2.00
2018-12-02T11:15:29.773Z,1.60
2018-12-02T11:20:33.371Z,1.63
2018-12-02T11:25:36.726Z,1.27
2018-12-02T11:30:40.814Z,1.87
2018-12-02T11:35:44.361Z,2.57
2018-12-02T11:40:47.950Z,1.60
2018-12-02T11:45:51.582Z,1.73
2018-12-02T11:50:55.065Z,2.60
2018-12-02T11:55:59.180Z,2.90
2018-12-02T12:01:10.453Z,2.37
2018-12-02T12:06:13.901Z,1.60
2018-12-02T12:11:18.133Z,1.23
2018-12-02T12:16:22.496Z,1.53
2018-12-02T12:21:26.071Z,2.20
2018-12-02T12:26:29.565Z,2.67
2018-12-02T12:31:32.946Z,0.90
2018-12-02T12:36:43.768Z,1.23
2018-12-02T12:41:50.065Z,1.87
2018-12-02T12:46:53.464Z,1.97
2018-12-02T12:51:56.812Z,1.47
2018-12-02T12:57:00.161Z,1.73
2018-12-02T13:02:03.550Z,2.77
2018-12-02T13:07:06.907Z,1.40
2018-12-02T13:12:10.539Z,0.90
2018-12-02T13:17:13.913Z,3.30
2018-12-02T13:22:17.280Z,1.40
2018-12-02T13:27:22.401Z,2.80
2018-12-02T13:32:30.533Z,2.60
2018-12-02T13:37:36.899Z,1.07
2018-12-02T13:42:41.040Z,0.70
2018-12-02T13:47:44.396Z,0.40
2018-12-02T13:52:47.738Z,0.40
2018-12-02T13:57:51.090Z,0.20
2018-12-02T14:02:54.423Z,1.00
2018-12-02T14:08:01.618Z,0.33
2018-12-02T14:13:04.970Z,0.50
2018-12-02T14:18:08.877Z,0.40
2018-12-02T14:23:12.240Z,0.70
2018-12-02T14:28:15.597Z,0.33
2018-12-02T14:33:19.185Z,0.20
2018-12-02T14:38:23.304Z,0.30
2018-12-02T14:43:27.403Z,0.83
2018-12-02T14:48:30.745Z,0.50
2018-12-02T14:53:34.872Z,0.53
2018-12-02T14:58:38.268Z,1.07
2018-12-02T15:03:41.646Z,0.30
2018-12-02T15:08:45.000Z,0.20
2018-12-02T15:13:48.373Z,0.33
2018-12-02T15:18:51.736Z,0.40
2018-12-02T15:23:55.124Z,1.07
2018-12-02T15:28:58.479Z,0.50
2018-12-02T15:34:01.833Z,0.70
2018-12-02T15:39:05.217Z,0.20
2018-12-02T15:44:08.573Z,1.07
2018-12-02T15:49:11.928Z,0.30
2018-12-02T15:54:19.170Z,0.30
2018-12-02T15:59:25.922Z,0.43
2018-12-02T16:04:31.080Z,0.40
2018-12-02T16:09:40.398Z,0.43
2018-12-02T16:14:44.699Z,0.20
2018-12-02T16:19:48.061Z,0.30
2018-12-02T16:24:51.413Z,0.40
2018-12-02T16:29:54.773Z,0.23
2018-12-02T16:34:58.924Z,0.67
2018-12-02T16:40:02.398Z,1.17
2018-12-02T16:45:06.588Z,0.23
2018-12-02T16:50:10.013Z,0.40
2018-12-02T16:55:13.377Z,0.30
2018-12-02T17:00:16.722Z,0.70
2018-12-02T17:05:20.078Z,0.53
2018-12-02T17:10:23.419Z,0.70
2018-12-02T17:15:26.794Z,0.80
2018-12-02T17:20:30.198Z,0.30
2018-12-02T17:25:33.556Z,0.50
2018-12-02T17:30:36.905Z,0.97
2018-12-02T17:35:40.261Z,0.50
2018-12-02T17:40:44.384Z,0.50
2018-12-02T17:45:47.724Z,0.87
2018-12-02T17:50:51.110Z,1.53
2018-12-02T17:55:55.218Z,0.40
2018-12-02T18:00:58.579Z,0.77
2018-12-02T18:06:02.033Z,0.30
2018-12-02T18:11:05.413Z,1.50
2018-12-02T18:16:08.780Z,2.07
2018-12-02T18:21:12.158Z,1.03
2018-12-02T18:26:15.499Z,0.57
2018-12-02T18:31:19.625Z,0.60
2018-12-02T18:36:23.009Z,1.23
2018-12-02T18:41:26.973Z,0.40
2018-12-02T18:46:31.144Z,0.40
2018-12-02T18:51:38.943Z,0.50
2018-12-02T18:56:42.298Z,0.47
2018-12-02T19:01:45.993Z,0.40
2018-12-02T19:06:49.383Z,0.63
2018-12-02T19:11:53.504Z,2.37
2018-12-02T19:17:01.921Z,0.50
2018-12-02T19:22:09.313Z,0.63
2018-12-02T19:27:12.673Z,0.60
2018-12-02T19:32:16.018Z,1.70
2018-12-02T19:37:19.349Z,0.50
2018-12-02T19:42:22.743Z,1.20
2018-12-02T19:47:26.927Z,0.37
2018-12-02T19:52:30.524Z,0.30
2018-12-02T19:57:34.651Z,1.63
2018-12-02T20:02:38.006Z,0.30
2018-12-02T20:07:41.403Z,0.93
2018-12-02T20:12:44.807Z,0.43
2018-12-02T20:17:48.924Z,0.47
2018-12-02T20:23:05.027Z,0.50
2018-12-02T20:28:22.959Z,0.40
2018-12-02T20:33:28.251Z,0.40
2018-12-02T20:38:32.657Z,0.43
2018-12-02T20:43:36.018Z,1.37
2018-12-02T20:48:39.370Z,0.87
2018-12-02T20:53:43.286Z,1.13
2018-12-02T20:59:01.509Z,0.43
2018-12-02T21:04:04.876Z,0.73
2018-12-02T21:09:08.297Z,1.00
2018-12-02T21:14:11.647Z,0.30
2018-12-02T21:19:15.049Z,0.30
2018-12-02T21:24:18.421Z,0.37
2018-12-02T21:29:21.773Z,0.37
2018-12-02T21:34:28.849Z,0.30
2018-12-02T21:39:32.995Z,0.20
2018-12-02T21:44:37.107Z,0.30
2018-12-02T21:49:40.460Z,0.20
2018-12-02T21:54:44.005Z,0.30
2018-12-02T21:59:47.348Z,0.20
2018-12-02T22:04:53.417Z,0.43
2018-12-02T22:09:56.785Z,1.60
2018-12-02T22:15:13.372Z,2.53
2018-12-02T22:20:17.493Z,0.53
2018-12-02T22:25:20.860Z,0.50
2018-12-02T22:30:24.269Z,0.67
2018-12-02T22:35:29.547Z,0.67
2018-12-02T22:40:32.916Z,0.47
2018-12-02T22:45:36.259Z,1.70
2018-12-02T22:50:39.601Z,0.33
2018-12-02T22:55:44.002Z,0.10
